Time;durP1;ratioP1;P1;durP2;ratioP2;P2;SDS_P1;SDS_P2;PMS_P1;PMS_P2;Temp;Humidity;BMP_temperature;BMP_pressure;BME280_temperature;BME280_humidity;BME280_pressure;Samples;Min_cycle;Max_cycle;Signal;HPM_P1;HPM_P2
2023/03/29 00:01:09;;;;;;;;;;;;;;;4.46;66.46;99116.38;5085401;28;20398;-80
2023/03/29 00:03:34;;;;;;;;;;;;;;;4.45;66.79;99116.56;5089926;28;19920;-80
2023/03/29 00:06:01;;;;;;;;;;;;;;;4.41;67.97;99121.44;5089017;28;19920;-80
2023/03/29 00:08:28;;;;;;;;;;;;;;;4.42;68.89;99109.88;5069935;28;19978;-80
2023/03/29 00:10:55;;;;;;;;;;;;;;;4.40;69.40;99117.19;5090655;28;19924;-79
2023/03/29 00:13:20;;;;;;;;;;;;;;;4.37;69.76;99117.56;5092630;28;20337;-80
2023/03/29 00:15:46;;;;;;;;;;;;;;;4.42;70.38;99116.97;5071996;28;20002;-80
2023/03/29 00:18:11;;;;;;;;;;;;;;;4.52;70.23;99115.53;5092666;28;20364;-80
2023/03/29 00:20:36;;;;;;;;;;;;;;;4.57;70.62;99118.41;5073004;28;20418;-80
2023/03/29 00:23:02;;;;;;;;;;;;;;;4.66;70.27;99126.13;5094741;28;19931;-79
2023/03/29 00:25:27;;;;;;;;;;;;;;;4.61;70.73;99116.16;5071435;28;19927;-80
2023/03/29 00:27:52;;;;;;;;;;;;;;;4.62;70.97;99115.16;5085377;28;19959;-79
2023/03/29 00:30:18;;;;;;;;;;;;;;;4.61;71.28;99110.06;5090522;28;19927;-80
2023/03/29 00:32:43;;;;;;;;;;;;;;;4.61;71.27;99104.78;5094808;28;19920;-80
2023/03/29 00:35:09;;;;;;;;;;;;;;;4.64;70.92;99094.63;5093008;28;19924;-80
2023/03/29 00:37:35;;;;;;;;;;;;;;;4.66;70.73;99097.03;5084261;28;20003;-79
2023/03/29 00:40:00;;;;;;;;;;;;;;;4.66;71.59;99086.47;5073546;28;19995;-79
2023/03/29 00:42:25;;;;;;;;;;;;;;;4.64;71.35;99080.56;5089391;28;20312;-79
2023/03/29 00:45:00;;;;;;;;;;;;;;;4.58;72.43;99079.56;5066923;28;19956;-79
2023/03/29 00:47:31;;;;;;;;;;;;;;;4.56;72.19;99084.25;5083016;28;19916;-79
2023/03/29 00:50:00;;;;;;;;;;;;;;;4.49;72.83;99081.63;5089849;28;20353;-79
2023/03/29 00:52:29;;;;;;;;;;;;;;;4.48;73.00;99081.78;5078481;28;19920;-79
2023/03/29 00:54:56;;;;;;;;;;;;;;;4.45;72.98;99067.19;5062902;28;19931;-78
2023/03/29 00:57:22;;;;;;;;;;;;;;;4.51;73.46;99070.84;5087846;28;19916;-79
2023/03/29 00:59:49;;;;;;;;;;;;;;;4.51;73.27;99068.19;5087863;28;20166;-79
2023/03/29 01:02:15;;;;;;;;;;;;;;;4.61;73.63;99071.22;5066954;28;19935;-79
2023/03/29 01:04:45;;;;;;;;;;;;;;;4.56;73.30;99073.69;5070143;28;19916;-78
2023/03/29 01:07:20;;;;;;;;;;;;;;;4.44;73.66;99070.00;5086560;28;19923;-79
2023/03/29 01:09:49;;;;;;;;;;;;;;;4.61;73.47;99067.78;5070879;28;19924;-79
2023/03/29 01:12:17;;;;;;;;;;;;;;;4.59;73.43;99061.91;5069245;28;19927;-79
2023/03/29 01:14:53;;;;;;;;;;;;;;;4.59;73.44;99060.03;5065250;28;19920;-80
2023/03/29 01:17:24;;;;;;;;;;;;;;;4.57;74.06;99054.16;5081695;28;19927;-79
2023/03/29 01:20:09;;;;;;;;;;;;;;;4.67;74.11;99051.09;5081742;28;19943;-79
2023/03/29 01:22:59;;;;;;;;;;;;;;;4.58;74.00;99037.28;5047080;28;20307;-79
2023/03/29 01:25:41;;;;;;;;;;;;;;;4.62;73.89;99035.84;5082193;28;19920;-80
2023/03/29 01:28:12;;;;;;;;;;;;;;;4.64;73.57;99036.47;5090995;28;19959;-79
2023/03/29 01:30:52;;;;;;;;;;;;;;;4.62;74.18;99035.03;5070807;28;19920;-79
2023/03/29 01:33:22;;;;;;;;;;;;;;;4.60;73.97;99037.06;5088125;28;19927;-80
2023/03/29 01:35:56;;;;;;;;;;;;;;;4.59;74.61;99032.81;5085647;28;19996;-80
2023/03/29 01:38:24;;;;;;;;;;;;;;;4.68;74.25;99026.28;5082640;28;20277;-79
2023/03/29 01:40:50;;;;;;;;;;;;;;;4.56;74.34;99023.47;5095281;28;19938;-79
2023/03/29 01:43:18;;;;;;;;;;;;;;;4.63;74.83;99020.81;5088892;28;19920;-80
2023/03/29 01:45:50;;;;;;;;;;;;;;;4.64;74.89;99012.66;5085101;28;20232;-79
2023/03/29 01:48:21;;;;;;;;;;;;;;;4.63;74.83;99005.75;5089423;28;19923;-79
2023/03/29 01:50:51;;;;;;;;;;;;;;;4.53;75.11;99002.72;5072689;28;20400;-79
2023/03/29 01:53:23;;;;;;;;;;;;;;;4.49;75.48;99002.34;5068754;28;19917;-79
2023/03/29 01:55:54;;;;;;;;;;;;;;;4.65;75.12;98998.44;5072679;28;19963;-79
2023/03/29 01:58:22;;;;;;;;;;;;;;;4.69;75.12;99001.47;5086493;28;19974;-79
2023/03/29 02:00:49;;;;;;;;;;;;;;;4.50;75.62;98995.19;5091122;28;19916;-79
2023/03/29 02:03:16;;;;;;;;;;;;;;;4.50;75.22;98997.84;5069906;28;20371;-79
2023/03/29 02:05:42;;;;;;;;;;;;;;;4.71;75.40;98991.50;5068950;28;20014;-79
2023/03/29 02:08:10;;;;;;;;;;;;;;;4.64;75.14;98990.69;5082483;28;19924;-79
2023/03/29 02:10:36;;;;;;;;;;;;;;;4.44;76.12;98988.09;5083874;28;19926;-79
2023/03/29 02:13:01;;;;;;;;;;;;;;;4.44;76.35;98990.75;5083316;28;19931;-79
2023/03/29 02:15:27;;;;;;;;;;;;;;;4.60;75.51;98990.31;5084860;28;20344;-79
2023/03/29 02:17:53;;;;;;;;;;;;;;;4.36;76.47;98983.84;5086735;28;19992;-79
2023/03/29 02:20:32;;;;;;;;;;;;;;;4.66;75.61;98983.38;5077528;28;19924;-80
2023/03/29 02:23:01;;;;;;;;;;;;;;;4.69;75.85;98977.69;5072324;28;20066;-79
2023/03/29 02:25:26;;;;;;;;;;;;;;;4.54;76.09;98975.28;5088569;28;19920;-79
2023/03/29 02:27:55;;;;;;;;;;;;;;;4.51;75.69;98981.78;5092734;28;20007;-79
2023/03/29 02:30:21;;;;;;;;;;;;;;;4.41;76.62;98975.31;5070821;28;20386;-79
2023/03/29 02:33:15;;;;;;;;;;;;;;;4.51;76.00;98976.50;5087930;28;19923;-79
2023/03/29 02:36:01;;;;;;;;;;;;;;;4.45;76.21;98971.22;5068541;28;19916;-80
2023/03/29 02:38:28;;;;;;;;;;;;;;;4.49;76.22;98967.97;5070047;28;19942;-79
2023/03/29 02:40:55;;;;;;;;;;;;;;;4.57;76.35;98972.22;5066736;28;19928;-79
2023/03/29 02:43:21;;;;;;;;;;;;;;;4.52;76.16;98964.13;5074307;28;19978;-79
2023/03/29 02:45:46;;;;;;;;;;;;;;;4.62;75.50;98966.31;5070196;28;19927;-79
2023/03/29 02:48:15;;;;;;;;;;;;;;;4.50;76.50;98952.91;5084718;28;20354;-79
2023/03/29 02:50:41;;;;;;;;;;;;;;;4.47;76.11;98953.34;5079036;28;20375;-79
2023/03/29 02:53:10;;;;;;;;;;;;;;;4.49;76.66;98944.19;5060669;28;19928;-79
2023/03/29 02:55:37;;;;;;;;;;;;;;;4.64;76.26;98940.47;5068014;28;19932;-79
2023/03/29 02:58:06;;;;;;;;;;;;;;;4.41;75.96;98928.53;5089008;28;20000;-79
2023/03/29 03:00:33;;;;;;;;;;;;;;;4.60;76.26;98934.81;5087431;28;19963;-79
2023/03/29 03:02:58;;;;;;;;;;;;;;;4.59;75.54;98935.03;5084702;28;19959;-79
2023/03/29 03:05:24;;;;;;;;;;;;;;;4.38;76.76;98928.97;5061488;28;19952;-79
2023/03/29 03:07:50;;;;;;;;;;;;;;;4.49;76.01;98930.16;5084612;28;19920;-79
2023/03/29 03:10:15;;;;;;;;;;;;;;;4.69;76.27;98932.75;5084197;28;21240;-79
2023/03/29 03:12:40;;;;;;;;;;;;;;;4.63;76.06;98917.72;5065712;28;20009;-79
2023/03/29 03:15:06;;;;;;;;;;;;;;;4.57;76.06;98922.81;5070060;28;20446;-79
2023/03/29 03:17:32;;;;;;;;;;;;;;;4.39;77.12;98925.28;5076801;28;20314;-79
2023/03/29 03:19:57;;;;;;;;;;;;;;;4.56;76.40;98923.81;5094297;28;20406;-79
2023/03/29 03:22:23;;;;;;;;;;;;;;;4.61;76.02;98915.28;5073557;28;20011;-78
2023/03/29 03:24:49;;;;;;;;;;;;;;;4.52;76.99;98925.25;5089058;28;19969;-79
2023/03/29 03:27:14;;;;;;;;;;;;;;;4.23;78.03;98920.47;5098428;28;20339;-79
2023/03/29 03:29:40;;;;;;;;;;;;;;;4.49;76.91;98914.31;5089667;28;20326;-79
2023/03/29 03:32:05;;;;;;;;;;;;;;;4.50;76.54;98916.72;5088630;28;20014;-79
2023/03/29 03:34:30;;;;;;;;;;;;;;;4.64;76.19;98921.97;5090391;28;20435;-79
2023/03/29 03:36:56;;;;;;;;;;;;;;;4.23;77.68;98912.53;5076427;28;20007;-79
2023/03/29 03:39:21;;;;;;;;;;;;;;;4.52;76.87;98909.41;5072578;28;19920;-79
2023/03/29 03:41:46;;;;;;;;;;;;;;;4.61;76.00;98909.19;5095827;28;19985;-79
2023/03/29 03:44:12;;;;;;;;;;;;;;;4.64;76.38;98911.41;5092006;28;20422;-79
2023/03/29 03:46:37;;;;;;;;;;;;;;;4.71;76.15;98915.66;5086721;28;19916;-79
2023/03/29 03:49:03;;;;;;;;;;;;;;;4.66;76.58;98910.19;5075636;28;19927;-78
2023/03/29 03:51:28;;;;;;;;;;;;;;;4.70;76.47;98916.66;5074704;28;19964;-79
2023/03/29 03:53:53;;;;;;;;;;;;;;;4.83;75.57;98907.88;5086694;28;20380;-79
2023/03/29 03:56:19;;;;;;;;;;;;;;;4.63;76.51;98912.44;5084276;28;19931;-79
2023/03/29 03:58:44;;;;;;;;;;;;;;;4.69;75.99;98904.47;5089193;28;20010;-79
2023/03/29 04:01:11;;;;;;;;;;;;;;;4.68;76.53;98897.56;5092637;28;19920;-79
2023/03/29 04:03:36;;;;;;;;;;;;;;;4.75;75.86;98894.88;5087698;28;19927;-79
2023/03/29 04:06:02;;;;;;;;;;;;;;;4.08;78.08;98896.13;5090142;28;19924;-79
2023/03/29 04:08:27;;;;;;;;;;;;;;;4.54;77.11;98893.34;5073312;28;19959;-80
2023/03/29 04:10:57;;;;;;;;;;;;;;;4.63;76.74;98886.00;5084659;28;19928;-80
2023/03/29 04:13:23;;;;;;;;;;;;;;;4.74;75.83;98890.63;5090867;28;19916;-79
2023/03/29 04:15:55;;;;;;;;;;;;;;;4.50;76.95;98882.38;5088051;28;19923;-80
2023/03/29 04:18:21;;;;;;;;;;;;;;;4.36;77.29;98872.88;5060368;28;19924;-80
2023/03/29 04:20:46;;;;;;;;;;;;;;;4.44;76.90;98879.75;5058411;28;19928;-79
2023/03/29 04:23:12;;;;;;;;;;;;;;;4.30;77.37;98870.25;5071495;28;19924;-79
2023/03/29 04:25:37;;;;;;;;;;;;;;;4.59;76.45;98877.66;5068869;28;19920;-78
2023/03/29 04:28:03;;;;;;;;;;;;;;;4.67;76.20;98885.38;5085801;28;19935;-79
2023/03/29 04:30:28;;;;;;;;;;;;;;;4.32;77.63;98876.97;5081640;28;19924;-79
2023/03/29 04:32:53;;;;;;;;;;;;;;;4.49;77.40;98875.47;5090785;28;20007;-79
2023/03/29 04:35:18;;;;;;;;;;;;;;;4.41;77.83;98872.25;5068832;28;19928;-79
2023/03/29 04:37:44;;;;;;;;;;;;;;;4.29;77.47;98864.16;5073135;28;20275;-79
2023/03/29 04:40:13;;;;;;;;;;;;;;;3.81;78.99;98868.09;5090928;28;19932;-79
2023/03/29 04:42:42;;;;;;;;;;;;;;;4.27;78.19;98865.38;5056695;28;19928;-79
2023/03/29 04:45:08;;;;;;;;;;;;;;;4.48;77.17;98865.91;5054047;28;19969;-80
2023/03/29 04:47:35;;;;;;;;;;;;;;;4.44;77.42;98862.06;5087291;28;19920;-79
2023/03/29 04:50:00;;;;;;;;;;;;;;;4.40;77.21;98858.22;5087842;28;20178;-79
2023/03/29 04:52:26;;;;;;;;;;;;;;;4.20;77.97;98861.94;5082788;28;20422;-79
2023/03/29 04:54:51;;;;;;;;;;;;;;;3.56;80.01;98857.34;5075453;28;20376;-79
2023/03/29 04:57:16;;;;;;;;;;;;;;;4.14;78.83;98855.66;5091817;28;19927;-79
2023/03/29 04:59:41;;;;;;;;;;;;;;;4.38;77.85;98857.63;5091801;28;20011;-79
2023/03/29 05:02:07;;;;;;;;;;;;;;;4.41;77.81;98854.56;5087156;28;19924;-79
2023/03/29 05:04:32;;;;;;;;;;;;;;;3.95;79.43;98855.72;5088405;28;19928;-79
2023/03/29 05:06:57;;;;;;;;;;;;;;;4.07;78.18;98846.13;5071899;28;19920;-79
2023/03/29 05:09:23;;;;;;;;;;;;;;;4.12;78.23;98847.16;5075930;28;19924;-79
2023/03/29 05:11:49;;;;;;;;;;;;;;;4.05;78.91;98848.16;5090691;28;20015;-79
2023/03/29 05:14:14;;;;;;;;;;;;;;;4.17;79.14;98855.22;5068537;28;19916;-80
2023/03/29 05:16:41;;;;;;;;;;;;;;;4.46;77.53;98849.47;5082658;28;20001;-79
2023/03/29 05:19:08;;;;;;;;;;;;;;;4.01;79.09;98852.22;5071997;28;20190;-79
2023/03/29 05:21:34;;;;;;;;;;;;;;;3.94;79.49;98851.44;5083833;28;19952;-79
2023/03/29 05:23:59;;;;;;;;;;;;;;;4.04;79.70;98849.19;5069305;28;19985;-79
2023/03/29 05:26:25;;;;;;;;;;;;;;;3.65;80.89;98850.03;5051244;28;19921;-80
2023/03/29 05:28:51;;;;;;;;;;;;;;;3.69;80.96;98841.50;5067457;28;20284;-79
2023/03/29 05:31:16;;;;;;;;;;;;;;;3.41;81.95;98840.09;5069682;28;19936;-79
2023/03/29 05:33:41;;;;;;;;;;;;;;;3.51;82.52;98837.88;5068640;28;20404;-79
2023/03/29 05:36:12;;;;;;;;;;;;;;;3.56;81.74;98835.47;5068919;28;19920;-79
2023/03/29 05:38:38;;;;;;;;;;;;;;;3.57;82.29;98840.53;5083037;28;19931;-79
2023/03/29 05:41:05;;;;;;;;;;;;;;;3.65;81.85;98829.75;5089450;28;20384;-80
2023/03/29 05:43:30;;;;;;;;;;;;;;;3.69;81.50;98835.44;5082851;28;19920;-79
2023/03/29 05:45:57;;;;;;;;;;;;;;;4.00;81.09;98834.78;5064902;28;20299;-79
2023/03/29 05:48:23;;;;;;;;;;;;;;;4.15;80.07;98820.28;5050704;28;19974;-79
2023/03/29 05:50:49;;;;;;;;;;;;;;;4.06;80.24;98826.84;5085311;28;19915;-80
2023/03/29 05:53:15;;;;;;;;;;;;;;;3.58;82.37;98826.28;5082906;28;19921;-79
2023/03/29 05:55:41;;;;;;;;;;;;;;;3.84;82.02;98825.47;5071356;28;19916;-79
2023/03/29 05:58:06;;;;;;;;;;;;;;;3.51;82.97;98825.50;5078354;28;19924;-79
2023/03/29 06:00:35;;;;;;;;;;;;;;;3.84;81.61;98825.47;5070531;28;19927;-80
2023/03/29 06:03:00;;;;;;;;;;;;;;;4.23;80.11;98832.47;5073334;28;19924;-79
2023/03/29 06:05:26;;;;;;;;;;;;;;;3.96;81.34;98833.56;5084849;28;19925;-80
2023/03/29 06:07:51;;;;;;;;;;;;;;;3.98;81.78;98831.50;5060924;28;20360;-79
2023/03/29 06:10:17;;;;;;;;;;;;;;;4.09;81.16;98826.41;5066973;28;20022;-79
2023/03/29 06:12:42;;;;;;;;;;;;;;;4.23;80.86;98825.38;5084350;28;19920;-80
2023/03/29 06:15:09;;;;;;;;;;;;;;;3.97;81.72;98827.28;5081867;28;20308;-80
2023/03/29 06:17:34;;;;;;;;;;;;;;;3.84;82.05;98828.09;5066196;28;20368;-79
2023/03/29 06:20:00;;;;;;;;;;;;;;;3.93;82.53;98834.81;5065862;28;19924;-79
2023/03/29 06:22:26;;;;;;;;;;;;;;;3.94;82.27;98830.31;5080395;28;19928;-79
2023/03/29 06:24:51;;;;;;;;;;;;;;;4.42;80.16;98834.22;5084665;28;19927;-79
2023/03/29 06:27:18;;;;;;;;;;;;;;;4.66;79.11;98832.69;5084890;28;19920;-79
2023/03/29 06:29:43;;;;;;;;;;;;;;;4.87;78.15;98832.41;5088029;28;19923;-79
2023/03/29 06:32:09;;;;;;;;;;;;;;;4.87;78.68;98822.63;5056250;28;19920;-79
2023/03/29 06:34:35;;;;;;;;;;;;;;;4.94;78.32;98830.50;5064503;28;19920;-80
2023/03/29 06:37:00;;;;;;;;;;;;;;;4.96;78.34;98829.28;5087816;28;19950;-80
2023/03/29 06:39:25;;;;;;;;;;;;;;;5.01;78.20;98828.63;5073525;28;19920;-80
2023/03/29 06:41:51;;;;;;;;;;;;;;;4.95;78.28;98835.59;5086490;28;20013;-80
2023/03/29 06:44:16;;;;;;;;;;;;;;;5.02;78.65;98838.22;5061810;28;19923;-80
2023/03/29 06:46:42;;;;;;;;;;;;;;;5.21;77.46;98835.44;5081565;28;20011;-80
2023/03/29 06:49:07;;;;;;;;;;;;;;;5.23;77.78;98841.31;5089713;28;20357;-80
2023/03/29 06:51:33;;;;;;;;;;;;;;;5.20;77.47;98841.75;5065963;28;19924;-80
2023/03/29 06:53:58;;;;;;;;;;;;;;;5.00;78.54;98840.25;5087630;28;19916;-79
2023/03/29 06:56:23;;;;;;;;;;;;;;;5.13;78.02;98840.19;5088173;28;19924;-80
2023/03/29 06:58:49;;;;;;;;;;;;;;;5.13;78.40;98834.88;5066076;28;19920;-79
2023/03/29 07:01:14;;;;;;;;;;;;;;;4.92;78.59;98840.50;5066121;28;19920;-80
2023/03/29 07:03:40;;;;;;;;;;;;;;;5.12;78.27;98846.47;5066783;28;19916;-80
2023/03/29 07:06:08;;;;;;;;;;;;;;;4.71;80.36;98846.94;5052545;28;19920;-80
2023/03/29 07:08:42;;;;;;;;;;;;;;;4.94;79.35;98838.44;5081689;28;20346;-80
2023/03/29 07:11:09;;;;;;;;;;;;;;;4.70;80.94;98831.25;5065640;28;19923;-79
2023/03/29 07:13:34;;;;;;;;;;;;;;;4.99;79.56;98836.81;5081824;28;19954;-79
2023/03/29 07:15:59;;;;;;;;;;;;;;;4.82;80.70;98840.16;5069448;28;19963;-79
2023/03/29 07:18:25;;;;;;;;;;;;;;;5.05;78.96;98837.78;5087904;28;20387;-79
2023/03/29 07:20:51;;;;;;;;;;;;;;;5.30;77.50;98833.34;5083304;28;19942;-79
2023/03/29 07:23:17;;;;;;;;;;;;;;;5.40;77.28;98838.13;5068816;28;19932;-79
2023/03/29 07:25:43;;;;;;;;;;;;;;;5.38;77.53;98835.72;5082122;28;19912;-79
2023/03/29 07:28:09;;;;;;;;;;;;;;;5.31;78.37;98837.59;5084273;28;19943;-79
2023/03/29 07:30:35;;;;;;;;;;;;;;;5.53;77.06;98817.66;5069148;28;19920;-80
2023/03/29 07:33:01;;;;;;;;;;;;;;;5.67;76.50;98827.13;5085490;28;19916;-80
2023/03/29 07:35:27;;;;;;;;;;;;;;;5.68;76.65;98826.09;5067267;28;20307;-80
2023/03/29 07:37:53;;;;;;;;;;;;;;;5.70;76.55;98834.63;5081614;28;19927;-80
2023/03/29 07:40:25;;;;;;;;;;;;;;;5.72;76.48;98831.78;5064324;28;19920;-79
2023/03/29 07:42:51;;;;;;;;;;;;;;;5.92;76.20;98832.41;5060845;28;20011;-80
2023/03/29 07:45:19;;;;;;;;;;;;;;;6.00;75.27;98825.00;5083093;28;20395;-79
2023/03/29 07:47:45;;;;;;;;;;;;;;;5.87;76.60;98833.09;5080247;28;20029;-79
2023/03/29 07:50:11;;;;;;;;;;;;;;;5.93;77.79;98839.34;5066536;28;19930;-79
2023/03/29 07:52:37;;;;;;;;;;;;;;;5.89;76.76;98828.38;5083943;28;20299;-79
2023/03/29 07:55:03;;;;;;;;;;;;;;;6.07;76.56;98829.44;5085244;28;19920;-79
2023/03/29 07:57:29;;;;;;;;;;;;;;;6.15;76.79;98839.72;5083044;28;19924;-80
2023/03/29 07:59:54;;;;;;;;;;;;;;;6.31;75.70;98831.19;5082988;28;20298;-79
2023/03/29 08:02:20;;;;;;;;;;;;;;;6.33;75.38;98835.25;5082031;28;19928;-79
2023/03/29 08:04:45;;;;;;;;;;;;;;;6.29;75.38;98838.56;5052169;28;19927;-79
2023/03/29 08:07:11;;;;;;;;;;;;;;;6.29;74.30;98843.88;5087755;28;19924;-79
2023/03/29 08:09:37;;;;;;;;;;;;;;;6.36;73.67;98844.59;5085805;28;20390;-79
2023/03/29 08:12:02;;;;;;;;;;;;;;;6.46;73.59;98840.41;5088097;28;19940;-79
2023/03/29 08:14:27;;;;;;;;;;;;;;;6.45;73.62;98830.00;5075276;28;19920;-79
2023/03/29 08:16:53;;;;;;;;;;;;;;;6.45;74.59;98833.47;5079448;28;20380;-79
2023/03/29 08:19:18;;;;;;;;;;;;;;;6.53;73.27;98837.69;5091886;28;19916;-80
2023/03/29 08:21:43;;;;;;;;;;;;;;;6.44;73.02;98828.41;5089892;28;19931;-80
2023/03/29 08:24:09;;;;;;;;;;;;;;;6.48;73.67;98827.72;5059056;28;19920;-80
2023/03/29 08:26:35;;;;;;;;;;;;;;;6.53;73.67;98835.81;5077030;28;19916;-80
2023/03/29 08:29:00;;;;;;;;;;;;;;;6.61;73.38;98840.00;5088137;28;19916;-80
2023/03/29 08:31:26;;;;;;;;;;;;;;;6.61;73.38;98838.19;5092540;28;19923;-80
2023/03/29 08:33:52;;;;;;;;;;;;;;;6.63;72.65;98844.06;5058669;28;19932;-81
2023/03/29 08:36:17;;;;;;;;;;;;;;;6.68;73.04;98840.75;5087481;28;20372;-80
2023/03/29 08:38:42;;;;;;;;;;;;;;;6.74;73.07;98831.88;5069550;28;19927;-80
2023/03/29 08:41:26;;;;;;;;;;;;;;;6.74;72.27;98831.88;5089538;28;19933;-81
2023/03/29 08:43:56;;;;;;;;;;;;;;;6.77;74.71;98823.50;5090461;28;20008;-80
2023/03/29 08:46:22;;;;;;;;;;;;;;;6.89;73.28;98813.72;5088816;28;19920;-81
2023/03/29 08:48:51;;;;;;;;;;;;;;;6.92;73.45;98823.09;5083602;28;20340;-80
2023/03/29 08:51:22;;;;;;;;;;;;;;;7.03;72.24;98807.22;5087040;28;19955;-80
2023/03/29 08:54:07;;;;;;;;;;;;;;;7.02;73.17;98807.41;5088442;28;19920;-80
2023/03/29 08:56:34;;;;;;;;;;;;;;;7.03;72.77;98817.00;5063577;28;19952;-80
2023/03/29 08:59:00;;;;;;;;;;;;;;;7.01;73.50;98827.03;5088793;28;19920;-80
2023/03/29 09:01:29;;;;;;;;;;;;;;;6.94;74.05;98837.75;5088749;28;19957;-80
2023/03/29 09:04:03;;;;;;;;;;;;;;;6.94;73.64;98835.09;5089837;28;20383;-79
2023/03/29 09:06:28;;;;;;;;;;;;;;;6.87;74.05;98826.41;5092110;28;20423;-79
2023/03/29 09:08:53;;;;;;;;;;;;;;;6.96;73.44;98819.75;5077966;28;19962;-79
2023/03/29 09:11:19;;;;;;;;;;;;;;;6.94;73.33;98819.19;5087693;28;19924;-79
2023/03/29 09:13:44;;;;;;;;;;;;;;;6.96;73.63;98816.28;5085939;28;19915;-80
2023/03/29 09:16:17;;;;;;;;;;;;;;;6.92;74.47;98813.28;5086444;28;20388;-80
2023/03/29 09:18:51;;;;;;;;;;;;;;;6.89;74.76;98810.25;5076033;28;19916;-80
2023/03/29 09:21:41;;;;;;;;;;;;;;;6.90;74.61;98807.41;5090246;28;19925;-80
2023/03/29 09:24:39;;;;;;;;;;;;;;;6.85;75.77;98807.25;5083384;28;20503;-80
2023/03/29 09:27:19;;;;;;;;;;;;;;;6.95;75.25;98801.38;5025912;28;19920;-80
2023/03/29 09:30:04;;;;;;;;;;;;;;;6.93;76.09;98806.13;5088955;28;19974;-80
2023/03/29 09:32:33;;;;;;;;;;;;;;;6.88;76.03;98798.81;5093262;28;19919;-80
2023/03/29 09:35:06;;;;;;;;;;;;;;;6.94;76.61;98790.00;5088755;28;19924;-80
2023/03/29 09:37:33;;;;;;;;;;;;;;;7.03;76.59;98793.94;5069822;28;19916;-80
2023/03/29 09:39:59;;;;;;;;;;;;;;;7.12;76.43;98797.84;5092583;28;19924;-80
2023/03/29 09:42:27;;;;;;;;;;;;;;;7.12;76.50;98792.56;5054810;28;19931;-79
2023/03/29 09:45:07;;;;;;;;;;;;;;;7.29;76.92;98793.53;5084157;28;19963;-80
2023/03/29 09:47:42;;;;;;;;;;;;;;;7.27;76.41;98789.50;5083197;28;19939;-80
2023/03/29 09:50:07;;;;;;;;;;;;;;;7.38;76.19;98797.44;5087221;28;19920;-80
2023/03/29 09:52:33;;;;;;;;;;;;;;;7.37;76.04;98790.53;5082734;28;19923;-79
2023/03/29 09:55:00;;;;;;;;;;;;;;;7.49;75.38;98804.63;5083704;28;19923;-80
2023/03/29 09:57:28;;;;;;;;;;;;;;;7.59;74.54;98801.41;5082791;28;19923;-80
2023/03/29 09:59:53;;;;;;;;;;;;;;;7.66;75.05;98796.81;5063111;28;19920;-80
2023/03/29 10:02:19;;;;;;;;;;;;;;;7.77;75.43;98801.31;5083537;28;19982;-80
2023/03/29 10:04:51;;;;;;;;;;;;;;;7.72;74.91;98803.03;5080852;28;19916;-80
2023/03/29 10:07:17;;;;;;;;;;;;;;;7.80;75.49;98790.19;5086127;28;19920;-80
2023/03/29 10:09:44;;;;;;;;;;;;;;;7.87;75.75;98792.75;5083720;28;20015;-79
2023/03/29 10:12:10;;;;;;;;;;;;;;;7.66;74.89;98788.84;5087403;28;19935;-80
2023/03/29 10:14:37;;;;;;;;;;;;;;;7.78;75.00;98779.00;5087894;28;19916;-80
2023/03/29 10:17:12;;;;;;;;;;;;;;;7.74;75.75;98785.81;5046418;28;20687;-79
2023/03/29 10:19:45;;;;;;;;;;;;;;;7.74;76.10;98790.31;5081320;28;19924;-80
2023/03/29 10:22:15;;;;;;;;;;;;;;;7.80;74.97;98797.38;5081462;28;19927;-80
2023/03/29 10:24:46;;;;;;;;;;;;;;;7.87;75.47;98808.69;5085718;28;19931;-80
2023/03/29 10:27:11;;;;;;;;;;;;;;;7.94;75.22;98801.41;5080818;28;20379;-80
2023/03/29 10:29:41;;;;;;;;;;;;;;;8.00;75.47;98803.94;5068684;28;19955;-80
2023/03/29 10:32:36;;;;;;;;;;;;;;;8.04;74.69;98815.72;5079919;28;19967;-79
2023/03/29 10:35:08;;;;;;;;;;;;;;;8.24;74.84;98791.41;5066095;28;19928;-80
2023/03/29 10:37:33;;;;;;;;;;;;;;;8.27;74.71;98789.16;5086437;28;19955;-81
2023/03/29 10:39:58;;;;;;;;;;;;;;;8.30;75.26;98790.50;5085325;28;19951;-80
2023/03/29 10:42:24;;;;;;;;;;;;;;;8.40;74.16;98788.06;5044137;28;19924;-81
2023/03/29 10:44:54;;;;;;;;;;;;;;;8.37;74.54;98788.53;5058059;28;19924;-80
2023/03/29 10:47:20;;;;;;;;;;;;;;;8.37;75.14;98779.72;5080749;28;19947;-81
2023/03/29 10:49:55;;;;;;;;;;;;;;;8.59;74.04;98786.03;5083626;28;19946;-81
2023/03/29 10:52:21;;;;;;;;;;;;;;;8.70;74.03;98772.69;5082579;28;19928;-81
2023/03/29 10:54:48;;;;;;;;;;;;;;;8.73;74.96;98772.22;5087019;28;20525;-82
2023/03/29 10:57:32;;;;;;;;;;;;;;;8.74;74.35;98757.84;5064080;28;19955;-81
2023/03/29 11:00:21;;;;;;;;;;;;;;;8.79;73.57;98759.81;5065194;28;19924;-82
2023/03/29 11:02:49;;;;;;;;;;;;;;;8.98;74.17;98772.66;5082589;28;20014;-81
2023/03/29 11:05:30;;;;;;;;;;;;;;;9.18;73.67;98774.06;5072242;28;19912;-81
2023/03/29 11:08:04;;;;;;;;;;;;;;;9.00;73.41;98765.25;5093403;28;20253;-81
2023/03/29 11:10:38;;;;;;;;;;;;;;;9.10;73.70;98769.13;5074567;28;19927;-81
2023/03/29 11:13:13;;;;;;;;;;;;;;;9.07;74.27;98771.22;5087266;28;19994;-81
2023/03/29 11:15:50;;;;;;;;;;;;;;;9.21;72.96;98770.91;5081488;28;19951;-81
2023/03/29 11:18:24;;;;;;;;;;;;;;;9.34;72.84;98770.59;5066497;28;20214;-81
2023/03/29 11:21:08;;;;;;;;;;;;;;;9.46;72.84;98765.97;5073512;28;19987;-81
2023/03/29 11:23:36;;;;;;;;;;;;;;;9.47;73.21;98770.28;5079718;28;19939;-81
2023/03/29 11:26:21;;;;;;;;;;;;;;;9.49;72.76;98770.84;5088827;28;19916;-81
2023/03/29 11:28:46;;;;;;;;;;;;;;;9.58;72.58;98761.38;5076929;28;19971;-81
2023/03/29 11:31:23;;;;;;;;;;;;;;;9.59;72.42;98763.81;5088218;28;19970;-81
2023/03/29 11:33:57;;;;;;;;;;;;;;;9.62;73.19;98775.84;5084839;28;19916;-81
2023/03/29 11:36:30;;;;;;;;;;;;;;;9.68;72.79;98770.34;5069155;28;20379;-81
2023/03/29 11:39:19;;;;;;;;;;;;;;;9.89;72.41;98760.78;5088033;28;20105;-81
2023/03/29 11:41:47;;;;;;;;;;;;;;;9.73;72.08;98757.09;5086859;28;19930;-81
2023/03/29 11:44:31;;;;;;;;;;;;;;;9.88;71.69;98764.50;5072026;28;19930;-81
2023/03/29 11:47:08;;;;;;;;;;;;;;;9.96;72.02;98750.72;5087334;28;19958;-81
2023/03/29 11:49:37;;;;;;;;;;;;;;;9.97;72.04;98756.88;5084060;28;19925;-82
2023/03/29 11:52:03;;;;;;;;;;;;;;;9.76;71.56;98761.13;5081850;28;20006;-81
2023/03/29 11:54:47;;;;;;;;;;;;;;;9.87;71.64;98760.22;5086796;28;19958;-81
2023/03/29 11:57:30;;;;;;;;;;;;;;;9.85;71.44;98764.97;5072171;28;20453;-81
2023/03/29 12:00:00;;;;;;;;;;;;;;;9.83;71.73;98756.41;5083167;28;19928;-81
2023/03/29 12:02:40;;;;;;;;;;;;;;;9.85;71.72;98756.19;5086405;28;20342;-81
2023/03/29 12:05:19;;;;;;;;;;;;;;;9.91;71.72;98745.34;5082518;28;20011;-81
2023/03/29 12:08:06;;;;;;;;;;;;;;;9.82;71.93;98744.16;5086342;28;19920;-82
2023/03/29 12:10:50;;;;;;;;;;;;;;;9.85;72.06;98745.53;5084370;28;20061;-81
2023/03/29 12:13:25;;;;;;;;;;;;;;;9.77;72.03;98744.06;5065630;28;19931;-81
2023/03/29 12:16:00;;;;;;;;;;;;;;;9.67;72.14;98746.59;5083720;28;19966;-81
2023/03/29 12:18:33;;;;;;;;;;;;;;;9.60;72.19;98737.97;5081992;28;19953;-80
2023/03/29 12:21:01;;;;;;;;;;;;;;;9.53;72.79;98735.47;5069139;28;19920;-81
2023/03/29 12:23:29;;;;;;;;;;;;;;;9.66;73.32;98729.81;5071151;28;19920;-81
2023/03/29 12:26:15;;;;;;;;;;;;;;;9.74;71.74;98734.69;5092682;28;20193;-81
2023/03/29 12:28:50;;;;;;;;;;;;;;;9.87;71.89;98728.22;5089691;28;19966;-81
2023/03/29 12:31:31;;;;;;;;;;;;;;;9.90;72.32;98735.72;5065697;28;19920;-80
2023/03/29 12:34:06;;;;;;;;;;;;;;;9.87;72.52;98732.75;5080633;28;19916;-81
2023/03/29 12:36:48;;;;;;;;;;;;;;;10.00;71.65;98725.22;5084269;28;19916;-80
2023/03/29 12:39:15;;;;;;;;;;;;;;;10.10;72.33;98721.84;5072361;28;19916;-80
2023/03/29 12:41:43;;;;;;;;;;;;;;;10.24;71.50;98723.91;5089645;28;19977;-82
2023/03/29 12:44:13;;;;;;;;;;;;;;;10.43;71.31;98717.22;5066990;28;20287;-82
2023/03/29 12:46:39;;;;;;;;;;;;;;;10.37;71.89;98720.88;5086042;28;19927;-80
2023/03/29 12:49:14;;;;;;;;;;;;;;;10.30;71.44;98727.47;5088131;28;19920;-81
2023/03/29 12:51:40;;;;;;;;;;;;;;;10.26;71.64;98718.34;5084557;28;19920;-82
2023/03/29 12:54:14;;;;;;;;;;;;;;;10.23;71.41;98724.97;5085288;28;19949;-80
2023/03/29 12:57:00;;;;;;;;;;;;;;;10.37;71.13;98704.88;5083185;28;19927;-80
2023/03/29 12:59:25;;;;;;;;;;;;;;;10.33;71.73;98713.63;5066656;28;19924;-80
2023/03/29 13:02:06;;;;;;;;;;;;;;;10.64;71.93;98704.09;5086165;28;19931;-80
2023/03/29 13:04:55;;;;;;;;;;;;;;;10.75;71.08;98705.75;5068047;28;19916;-82
2023/03/29 13:07:21;;;;;;;;;;;;;;;10.89;71.04;98704.31;5083021;28;20349;-81